Time;durP1;ratioP1;P1;durP2;ratioP2;P2;SDS_P1;SDS_P2;PMS_P1;PMS_P2;Temp;Humidity;BMP_temperature;BMP_pressure;BME280_temperature;BME280_humidity;BME280_pressure;Samples;Min_cycle;Max_cycle;Signal;HPM_P1;HPM_P2
2021/06/13 00:02:16;;;;;;;3.58;2.30;;;23.60;51.90;;;;;;5035588;28;20057;-62
2021/06/13 00:04:42;;;;;;;3.63;2.25;;;23.30;51.80;;;;;;5035255;28;20639;-62
2021/06/13 00:07:07;;;;;;;4.20;2.10;;;23.10;51.70;;;;;;5033992;28;20029;-62
2021/06/13 00:09:33;;;;;;;4.50;2.28;;;23.00;51.70;;;;;;5035437;28;20163;-62
2021/06/13 00:11:59;;;;;;;3.50;1.88;;;23.10;51.90;;;;;;5035132;28;20026;-62
2021/06/13 00:14:24;;;;;;;6.05;2.78;;;23.20;51.90;;;;;;5035363;28;20021;-61
2021/06/13 00:16:50;;;;;;;4.22;2.28;;;23.30;52.00;;;;;;5035055;28;20461;-62
2021/06/13 00:19:16;;;;;;;2.45;2.25;;;23.20;52.00;;;;;;5035214;28;20028;-62
2021/06/13 00:21:42;;;;;;;4.75;2.35;;;23.30;52.10;;;;;;5035026;28;20029;-62
2021/06/13 00:24:08;;;;;;;3.97;2.53;;;23.10;52.00;;;;;;5035211;28;20028;-62
2021/06/13 00:26:34;;;;;;;4.40;2.67;;;23.50;52.20;;;;;;5033511;28;20053;-62
2021/06/13 00:29:00;;;;;;;3.05;1.98;;;23.70;52.30;;;;;;5034834;28;20044;-62
2021/06/13 00:31:25;;;;;;;3.00;2.30;;;23.10;52.10;;;;;;5034850;28;20022;-61
2021/06/13 00:33:51;;;;;;;4.00;2.30;;;23.00;52.30;;;;;;5034794;28;20468;-61
2021/06/13 00:36:17;;;;;;;4.13;2.63;;;23.20;52.30;;;;;;5035016;28;20449;-62
2021/06/13 00:38:43;;;;;;;2.80;2.50;;;23.40;52.50;;;;;;5033456;28;20124;-62
2021/06/13 00:41:09;;;;;;;4.82;2.53;;;23.00;52.20;;;;;;5034969;28;20097;-62
2021/06/13 00:43:35;;;;;;;2.85;2.08;;;23.30;52.30;;;;;;5034609;28;20380;-62
2021/06/13 00:46:01;;;;;;;2.92;2.17;;;23.20;52.30;;;;;;5034813;28;20014;-62
2021/06/13 00:48:27;;;;;;;5.28;2.60;;;23.00;52.20;;;;;;5034517;28;20079;-62
2021/06/13 00:50:54;;;;;;;4.97;2.65;;;23.10;52.40;;;;;;5034537;28;20029;-62
2021/06/13 00:53:21;;;;;;;4.55;2.70;;;23.00;52.30;;;;;;5034703;28;20108;-62
2021/06/13 00:55:47;;;;;;;4.95;2.58;;;23.00;52.30;;;;;;5034622;28;20105;-62
2021/06/13 00:58:13;;;;;;;4.55;2.47;;;23.00;52.40;;;;;;5034291;28;20476;-62
2021/06/13 01:00:40;;;;;;;4.32;2.40;;;23.00;52.40;;;;;;5034309;28;20064;-61
2021/06/13 01:03:07;;;;;;;3.53;2.20;;;23.40;52.70;;;;;;5034216;28;20096;-62
2021/06/13 01:05:33;;;;;;;5.75;2.35;;;23.00;52.40;;;;;;5034470;28;20088;-62
2021/06/13 01:08:21;;;;;;;3.13;2.55;;;23.00;52.50;;;;;;5034365;28;20464;-62
2021/06/13 01:11:02;;;;;;;4.20;2.55;;;23.00;52.50;;;;;;5034072;28;20476;-62
2021/06/13 01:13:53;;;;;;;3.72;2.25;;;23.10;52.60;;;;;;5033974;28;20033;-62
2021/06/13 01:17:00;;;;;;;4.90;2.50;;;22.90;52.40;;;;;;5032892;28;20049;-62
2021/06/13 01:19:32;;;;;;;4.45;2.58;;;22.90;52.50;;;;;;5034052;28;20082;-62
2021/06/13 01:22:28;;;;;;;3.35;1.75;;;22.90;53.30;;;;;;5033963;28;20519;-62
2021/06/13 01:25:16;;;;;;;2.60;2.13;;;22.90;52.60;;;;;;5034270;28;20051;-62
2021/06/13 01:28:34;;;;;;;3.95;2.40;;;23.00;52.70;;;;;;5033665;28;20050;-62
2021/06/13 01:31:02;;;;;;;4.47;2.38;;;22.90;52.60;;;;;;5031537;28;20069;-61
2021/06/13 01:33:30;;;;;;;3.85;2.45;;;22.80;52.70;;;;;;5034052;28;20021;-60
2021/06/13 01:35:56;;;;;;;5.45;2.45;;;22.90;52.80;;;;;;5033964;28;20071;-62
2021/06/13 01:38:23;;;;;;;3.97;2.42;;;22.90;52.80;;;;;;5033942;28;20041;-62
2021/06/13 01:40:49;;;;;;;3.47;1.92;;;23.40;53.10;;;;;;5033796;28;20053;-61
2021/06/13 01:43:16;;;;;;;3.30;2.20;;;22.80;78.00;;;;;;5033358;28;20075;-62
2021/06/13 01:45:43;;;;;;;4.10;2.35;;;22.90;52.90;;;;;;5033441;28;20025;-62
2021/06/13 01:48:12;;;;;;;4.43;2.30;;;22.20;52.60;;;;;;5033277;28;20037;-62
2021/06/13 01:50:38;;;;;;;2.53;2.13;;;22.80;52.90;;;;;;5033287;28;20018;-62
2021/06/13 01:53:09;;;;;;;5.47;2.70;;;22.90;53.00;;;;;;5033286;28;20029;-61
2021/06/13 01:55:35;;;;;;;2.70;1.88;;;22.80;53.00;;;;;;5033565;28;20037;-62
2021/06/13 01:58:02;;;;;;;3.28;2.38;;;22.90;53.10;;;;;;5033440;28;20025;-62
2021/06/13 02:00:29;;;;;;;4.13;2.65;;;22.80;53.00;;;;;;5033337;28;20043;-62
2021/06/13 02:02:55;;;;;;;4.90;2.40;;;22.20;52.90;;;;;;5033387;28;20018;-62
2021/06/13 02:05:25;;;;;;;3.33;2.40;;;23.10;53.30;;;;;;5033365;28;20025;-61
2021/06/13 02:07:54;;;;;;;3.25;2.10;;;22.80;53.10;;;;;;5033211;28;20034;-61
2021/06/13 02:10:21;;;;;;;3.67;2.30;;;22.80;53.10;;;;;;5032953;28;20472;-61
2021/06/13 02:12:48;;;;;;;4.05;2.28;;;22.80;53.20;;;;;;5033179;28;20028;-61
2021/06/13 02:15:18;;;;;;;4.93;2.10;;;22.80;53.20;;;;;;5032090;28;20056;-61
2021/06/13 02:17:46;;;;;;;5.13;2.50;;;22.80;53.20;;;;;;5032972;28;20021;-62
2021/06/13 02:20:13;;;;;;;3.55;2.28;;;22.90;53.30;;;;;;5033151;28;20025;-62
2021/06/13 02:22:41;;;;;;;3.92;1.83;;;22.80;53.20;;;;;;5033089;28;20105;-62
2021/06/13 02:25:09;;;;;;;4.07;2.45;;;22.80;53.30;;;;;;5033095;28;20388;-62
2021/06/13 02:27:36;;;;;;;3.38;2.08;;;22.70;53.30;;;;;;5032484;28;20072;-62
2021/06/13 02:30:03;;;;;;;3.42;2.33;;;22.80;53.30;;;;;;5032420;28;20076;-62
2021/06/13 02:32:32;;;;;;;3.63;2.50;;;22.70;53.30;;;;;;5032658;28;20014;-62
2021/06/13 02:34:58;;;;;;;3.13;2.30;;;22.70;53.30;;;;;;5032697;28;20112;-62
2021/06/13 02:37:26;;;;;;;2.83;2.28;;;22.70;53.40;;;;;;5032757;28;20022;-61
2021/06/13 02:39:52;;;;;;;4.85;2.08;;;22.70;53.40;;;;;;5032861;28;20021;-61
2021/06/13 02:42:18;;;;;;;2.65;2.20;;;22.80;53.40;;;;;;5032860;28;20030;-61
2021/06/13 02:44:45;;;;;;;3.35;2.05;;;22.70;53.40;;;;;;5032537;28;20104;-62
2021/06/13 02:47:12;;;;;;;2.35;1.90;;;22.70;53.50;;;;;;5032480;28;20026;-62
2021/06/13 02:49:38;;;;;;;2.45;2.25;;;23.10;53.70;;;;;;5032491;28;20033;-61
2021/06/13 02:52:24;;;;;;;3.22;2.58;;;22.70;53.50;;;;;;5032451;28;20017;-62
2021/06/13 02:54:52;;;;;;;3.28;2.25;;;22.70;53.40;;;;;;5032759;28;20368;-62
2021/06/13 02:57:38;;;;;;;4.30;2.40;;;22.60;53.50;;;;;;5032667;28;20022;-62
2021/06/13 03:00:09;;;;;;;5.57;2.30;;;22.90;53.70;;;;;;5032731;28;20456;-62
2021/06/13 03:02:40;;;;;;;4.43;2.25;;;22.70;53.60;;;;;;5032712;28;20020;-62
2021/06/13 03:05:07;;;;;;;4.82;2.45;;;23.30;53.90;;;;;;5032670;28;20022;-62
2021/06/13 03:07:33;;;;;;;3.80;2.30;;;22.60;53.60;;;;;;5030936;28;20116;-62
2021/06/13 03:10:02;;;;;;;3.28;2.08;;;22.60;54.30;;;;;;5032254;28;20049;-62
2021/06/13 03:12:29;;;;;;;3.75;2.10;;;22.60;53.60;;;;;;5032479;28;20029;-62
2021/06/13 03:14:55;;;;;;;3.00;2.25;;;23.30;54.00;;;;;;5032295;28;20100;-62
2021/06/13 03:17:23;;;;;;;2.95;2.28;;;23.10;53.90;;;;;;5032242;28;20481;-62
2021/06/13 03:19:50;;;;;;;5.28;2.70;;;23.20;54.00;;;;;;5032486;28;20117;-62
2021/06/13 03:22:16;;;;;;;3.17;2.42;;;23.30;54.10;;;;;;5032506;28;20060;-62
2021/06/13 03:24:44;;;;;;;3.05;2.30;;;22.50;79.30;;;;;;5032384;28;20399;-62
2021/06/13 03:27:11;;;;;;;6.43;2.55;;;23.50;54.30;;;;;;5031997;28;20064;-62
2021/06/13 03:29:40;;;;;;;2.90;1.80;;;22.60;53.80;;;;;;5032322;28;20029;-62
2021/06/13 03:32:08;;;;;;;3.27;2.30;;;22.60;53.80;;;;;;5032183;28;20021;-62
2021/06/13 03:34:36;;;;;;;2.55;2.10;;;23.10;54.20;;;;;;5032343;28;20021;-62
2021/06/13 03:37:04;;;;;;;3.38;2.03;;;23.10;54.10;;;;;;5030813;28;20022;-62
2021/06/13 03:39:31;;;;;;;3.65;2.08;;;22.60;53.90;;;;;;5032024;28;20032;-62
2021/06/13 03:41:59;;;;;;;4.75;2.85;;;22.60;53.90;;;;;;5034020;28;20372;-62
2021/06/13 03:44:25;;;;;;;4.25;2.53;;;22.80;54.00;;;;;;5035557;28;20029;-62
2021/06/13 03:46:51;;;;;;;2.92;2.10;;;22.50;53.90;;;;;;5035958;28;20018;-62
2021/06/13 03:49:20;;;;;;;2.92;2.30;;;22.50;53.90;;;;;;5035459;28;20037;-62
2021/06/13 03:51:46;;;;;;;3.97;2.47;;;22.60;54.30;;;;;;5035865;28;20025;-62
2021/06/13 03:54:12;;;;;;;4.00;2.70;;;22.50;54.00;;;;;;5035554;28;20136;-62
2021/06/13 03:56:42;;;;;;;3.65;2.05;;;22.50;54.00;;;;;;5035720;28;20028;-62
2021/06/13 03:59:11;;;;;;;4.47;2.10;;;22.30;53.90;;;;;;5035740;28;20029;-62
2021/06/13 04:01:38;;;;;;;3.30;2.10;;;22.50;54.10;;;;;;5035338;28;20026;-62
2021/06/13 04:04:05;;;;;;;2.92;2.10;;;22.50;54.10;;;;;;5035359;28;20053;-62
2021/06/13 04:06:31;;;;;;;3.33;2.30;;;22.50;54.10;;;;;;5034365;28;20047;-62
2021/06/13 04:08:58;;;;;;;4.95;2.47;;;22.50;54.10;;;;;;5035455;28;20388;-62
2021/06/13 04:11:25;;;;;;;3.17;2.15;;;22.50;54.20;;;;;;5035466;28;20096;-62
2021/06/13 04:13:52;;;;;;;3.72;2.22;;;22.50;54.20;;;;;;5035486;28;20025;-62
2021/06/13 04:16:21;;;;;;;4.35;2.28;;;22.50;54.20;;;;;;5035415;28;20029;-63
2021/06/13 04:18:48;;;;;;;2.85;2.15;;;22.50;54.40;;;;;;5035117;28;20484;-62
2021/06/13 04:21:14;;;;;;;2.25;1.95;;;22.50;54.30;;;;;;5035354;28;20022;-62
2021/06/13 04:23:43;;;;;;;3.65;2.17;;;22.40;54.20;;;;;;5035288;28;20086;-62
2021/06/13 04:26:19;;;;;;;2.88;2.13;;;22.60;54.30;;;;;;5033569;28;20484;-62
2021/06/13 04:28:45;;;;;;;2.85;2.22;;;22.40;54.20;;;;;;5034978;28;20029;-63
2021/06/13 04:31:15;;;;;;;5.25;2.83;;;22.40;54.30;;;;;;5035179;28;20067;-62
2021/06/13 04:33:47;;;;;;;3.83;2.03;;;22.90;54.50;;;;;;5035219;28;20024;-62
2021/06/13 04:36:14;;;;;;;3.95;2.22;;;22.90;54.60;;;;;;5035190;28;20104;-62
2021/06/13 04:38:40;;;;;;;2.83;2.10;;;22.40;54.30;;;;;;5034839;28;20030;-62
2021/06/13 04:41:08;;;;;;;4.20;2.15;;;22.30;54.30;;;;;;5035035;28;20021;-62
2021/06/13 04:43:35;;;;;;;4.45;2.90;;;22.30;54.30;;;;;;5034907;28;20025;-62
2021/06/13 04:46:03;;;;;;;3.30;2.08;;;22.30;54.30;;;;;;5033568;28;20101;-62
2021/06/13 04:48:28;;;;;;;3.58;2.35;;;22.90;54.70;;;;;;5034521;28;20049;-62
2021/06/13 04:50:58;;;;;;;1.50;1.40;;;22.40;54.40;;;;;;5034816;28;20083;-62
2021/06/13 04:53:51;;;;;;;4.60;2.03;;;22.50;54.50;;;;;;5034193;28;20025;-62
2021/06/13 04:56:47;;;;;;;2.88;2.00;;;22.40;80.00;;;;;;5034387;28;20488;-62
2021/06/13 04:59:13;;;;;;;3.58;2.17;;;22.40;54.40;;;;;;5034370;28;20033;-62
2021/06/13 05:01:41;;;;;;;3.47;2.10;;;22.40;54.40;;;;;;5032928;28;20032;-62
2021/06/13 05:04:07;;;;;;;3.85;2.45;;;22.80;54.70;;;;;;5034515;28;20030;-62
2021/06/13 05:06:33;;;;;;;3.10;2.10;;;22.40;54.50;;;;;;5034437;28;20013;-62
2021/06/13 05:08:59;;;;;;;3.05;2.08;;;22.20;54.40;;;;;;5034371;28;20358;-62
2021/06/13 05:11:26;;;;;;;3.10;2.13;;;;;;;;;;5034154;28;20053;-62
2021/06/13 05:13:51;;;;;;;4.10;2.38;;;22.40;53.90;;;;;;5034062;28;20473;-62
2021/06/13 05:16:17;;;;;;;3.80;2.50;;;22.40;54.60;;;;;;5034064;28;20068;-62
2021/06/13 05:18:43;;;;;;;3.70;2.30;;;22.40;54.60;;;;;;5033897;28;20025;-62
2021/06/13 05:21:09;;;;;;;3.28;2.42;;;22.40;54.60;;;;;;5033898;28;20026;-62
2021/06/13 05:23:34;;;;;;;2.58;1.70;;;22.40;54.60;;;;;;5034063;28;20033;-62
2021/06/13 05:26:00;;;;;;;1.98;1.70;;;22.40;54.60;;;;;;5032416;28;20033;-62
2021/06/13 05:28:27;;;;;;;3.88;2.25;;;22.60;54.70;;;;;;5033967;28;20046;-62
2021/06/13 05:30:53;;;;;;;3.45;2.05;;;22.40;54.60;;;;;;5033748;28;20052;-62
2021/06/13 05:33:19;;;;;;;4.03;2.00;;;22.40;54.60;;;;;;5033665;28;20029;-62
2021/06/13 05:35:46;;;;;;;3.67;2.15;;;22.40;54.60;;;;;;5033903;28;20021;-62
2021/06/13 05:38:12;;;;;;;2.78;1.80;;;22.40;54.60;;;;;;5033537;28;20033;-62
2021/06/13 05:40:38;;;;;;;3.40;2.35;;;22.30;54.60;;;;;;5033808;28;20023;-62
2021/06/13 05:43:07;;;;;;;3.22;1.92;;;22.40;80.40;;;;;;5033634;28;20109;-62
2021/06/13 05:45:33;;;;;;;2.47;1.90;;;22.30;54.70;;;;;;5033700;28;20017;-62
2021/06/13 05:47:59;;;;;;;4.53;2.25;;;22.40;54.70;;;;;;5032077;28;20064;-63
2021/06/13 05:50:26;;;;;;;3.05;1.92;;;22.00;54.60;;;;;;5032082;28;20429;-62
2021/06/13 05:52:52;;;;;;;2.70;1.90;;;22.30;54.80;;;;;;5033403;28;20469;-62
2021/06/13 05:55:18;;;;;;;3.47;1.80;;;22.30;54.70;;;;;;5033508;28;20072;-62
2021/06/13 05:57:47;;;;;;;2.92;1.80;;;22.40;54.80;;;;;;5033504;28;20021;-62
2021/06/13 06:00:17;;;;;;;3.28;1.92;;;22.30;54.80;;;;;;5033186;28;20519;-62
2021/06/13 06:02:44;;;;;;;4.22;1.90;;;22.30;54.70;;;;;;5033417;28;20032;-62
2021/06/13 06:05:12;;;;;;;3.10;2.17;;;22.40;54.90;;;;;;5032582;28;20025;-61
2021/06/13 06:07:38;;;;;;;3.78;2.30;;;22.30;54.90;;;;;;5032901;28;20036;-62
2021/06/13 06:10:05;;;;;;;3.22;1.98;;;22.30;54.90;;;;;;5033333;28;20021;-62
2021/06/13 06:12:30;;;;;;;3.08;2.20;;;22.30;54.90;;;;;;5033278;28;20021;-62
2021/06/13 06:14:56;;;;;;;2.83;1.88;;;22.30;54.90;;;;;;5033275;28;20391;-62
2021/06/13 06:17:22;;;;;;;3.58;1.85;;;22.30;54.90;;;;;;5032891;28;20072;-62
2021/06/13 06:19:48;;;;;;;3.60;2.15;;;22.30;54.90;;;;;;5033114;28;20128;-62
2021/06/13 06:22:13;;;;;;;3.25;2.10;;;22.30;54.90;;;;;;5033126;28;20029;-62
2021/06/13 06:24:39;;;;;;;3.08;1.83;;;22.30;54.90;;;;;;5033018;28;20017;-62
2021/06/13 06:27:05;;;;;;;2.10;1.80;;;22.30;55.00;;;;;;5032622;28;20088;-62
2021/06/13 06:29:31;;;;;;;3.05;1.92;;;22.30;55.00;;;;;;5032920;28;20036;-62
2021/06/13 06:31:57;;;;;;;3.10;2.17;;;22.30;55.00;;;;;;5032947;28;20087;-62
2021/06/13 06:34:23;;;;;;;3.20;2.40;;;22.30;55.10;;;;;;5032608;28;20025;-62
2021/06/13 06:36:49;;;;;;;2.22;1.85;;;22.50;55.20;;;;;;5031382;28;20472;-62
2021/06/13 06:39:15;;;;;;;3.65;2.22;;;22.40;55.20;;;;;;5032795;28;20105;-62
2021/06/13 06:41:41;;;;;;;2.25;2.05;;;22.30;55.20;;;;;;5032863;28;20112;-63
2021/06/13 06:44:08;;;;;;;2.85;1.88;;;22.30;55.20;;;;;;5032443;28;20393;-63
2021/06/13 06:46:35;;;;;;;4.82;2.10;;;22.40;55.20;;;;;;5032771;28;20018;-62
2021/06/13 06:49:02;;;;;;;4.63;2.40;;;22.30;55.10;;;;;;5032387;28;20573;-63
2021/06/13 06:51:27;;;;;;;3.65;2.28;;;22.30;55.10;;;;;;5032378;28;20160;-62
2021/06/13 06:53:54;;;;;;;2.95;2.05;;;22.30;55.10;;;;;;5032494;28;20104;-62
2021/06/13 06:56:19;;;;;;;3.40;2.10;;;22.40;55.20;;;;;;5032696;28;20009;-62
2021/06/13 06:58:45;;;;;;;3.47;1.88;;;22.30;55.20;;;;;;5032471;28;20028;-62
2021/06/13 07:01:10;;;;;;;1.73;1.50;;;22.50;55.50;;;;;;5032788;28;20025;-62
2021/06/13 07:03:36;;;;;;;3.45;2.00;;;22.70;55.30;;;;;;5032441;28;20079;-62
2021/06/13 07:06:02;;;;;;;3.72;1.80;;;22.30;55.30;;;;;;5032746;28;20105;-60
2021/06/13 07:08:27;;;;;;;3.13;1.90;;;22.40;81.10;;;;;;5032309;28;20044;-60
2021/06/13 07:10:53;;;;;;;8.13;2.63;;;22.10;55.50;;;;;;5031441;28;20036;-60
2021/06/13 07:13:18;;;;;;;4.95;1.70;;;22.40;56.00;;;;;;5032404;28;20362;-60
2021/06/13 07:15:44;;;;;;;5.93;2.20;;;22.40;55.90;;;;;;5032203;28;20017;-60
2021/06/13 07:18:10;;;;;;;7.78;2.80;;;22.40;55.90;;;;;;5036007;28;20034;-60
2021/06/13 07:20:36;;;;;;;6.65;2.17;;;22.40;56.10;;;;;;5036078;28;20018;-61
2021/06/13 07:23:02;;;;;;;4.10;2.22;;;22.40;56.00;;;;;;5036411;28;20034;-61
2021/06/13 07:25:28;;;;;;;3.92;2.22;;;22.40;56.10;;;;;;5036387;28;20018;-60
2021/06/13 07:27:54;;;;;;;5.47;1.88;;;22.50;56.30;;;;;;5036029;28;20095;-60
2021/06/13 07:30:21;;;;;;;6.82;1.98;;;22.40;56.40;;;;;;5035190;28;20024;-61
2021/06/13 07:32:47;;;;;;;9.20;2.15;;;22.40;56.50;;;;;;5036356;28;20029;-60
2021/06/13 07:35:13;;;;;;;6.50;2.05;;;22.40;56.70;;;;;;5036052;28;20075;-61
2021/06/13 07:37:40;;;;;;;4.10;1.85;;;22.90;57.10;;;;;;5036063;28;20033;-61
2021/06/13 07:40:07;;;;;;;4.10;1.70;;;22.40;56.80;;;;;;5034672;28;20022;-61
2021/06/13 07:42:33;;;;;;;4.70;2.08;;;22.40;56.90;;;;;;5035988;28;20034;-61
2021/06/13 07:44:59;;;;;;;4.68;2.00;;;22.40;56.80;;;;;;5035943;28;20037;-59
2021/06/13 07:47:25;;;;;;;3.40;2.08;;;22.40;56.30;;;;;;5035959;28;20052;-59
2021/06/13 07:49:50;;;;;;;3.65;2.42;;;22.40;56.20;;;;;;5035851;28;20029;-59
2021/06/13 07:52:16;;;;;;;5.43;2.03;;;22.30;56.20;;;;;;5035765;28;20125;-60
2021/06/13 07:54:42;;;;;;;4.50;2.30;;;22.40;56.90;;;;;;5035785;28;20026;-60
2021/06/13 07:57:08;;;;;;;8.18;2.55;;;22.40;57.00;;;;;;5035916;28;20053;-60
2021/06/13 07:59:35;;;;;;;5.82;2.85;;;22.20;82.50;;;;;;5035518;28;20468;-60
2021/06/13 08:02:02;;;;;;;12.80;2.30;;;22.50;56.60;;;;;;5035629;28;20029;-59
2021/06/13 08:04:34;;;;;;;11.05;2.47;;;22.40;56.70;;;;;;5035444;28;20025;-60
2021/06/13 08:07:00;;;;;;;8.60;2.75;;;22.50;56.70;;;;;;5035505;28;20388;-60
2021/06/13 08:09:25;;;;;;;10.13;2.00;;;22.40;56.70;;;;;;5035405;28;20042;-60
2021/06/13 08:11:51;;;;;;;8.82;2.38;;;22.40;56.80;;;;;;5035503;28;20028;-60
2021/06/13 08:14:17;;;;;;;6.53;2.50;;;22.40;56.70;;;;;;5035594;28;20029;-60
2021/06/13 08:16:43;;;;;;;4.85;2.25;;;22.40;56.50;;;;;;5035550;28;20372;-60
2021/06/13 08:19:08;;;;;;;5.05;2.08;;;22.40;56.30;;;;;;5035165;28;20037;-60
2021/06/13 08:21:35;;;;;;;12.07;2.58;;;22.90;56.60;;;;;;5035494;28;20021;-60
2021/06/13 08:24:02;;;;;;;6.35;2.22;;;22.40;56.40;;;;;;5035087;28;20025;-60
2021/06/13 08:26:27;;;;;;;4.45;2.08;;;22.40;56.40;;;;;;5035000;28;20045;-60
2021/06/13 08:28:54;;;;;;;6.45;2.45;;;22.40;56.60;;;;;;5033922;28;20038;-60
2021/06/13 08:31:22;;;;;;;5.53;2.70;;;22.50;56.70;;;;;;5035284;28;20073;-60
2021/06/13 08:33:48;;;;;;;4.53;2.47;;;22.40;56.70;;;;;;5035136;28;20099;-60
2021/06/13 08:36:14;;;;;;;5.13;2.72;;;22.40;56.80;;;;;;5035126;28;20025;-60
2021/06/13 08:38:40;;;;;;;7.18;2.17;;;22.40;56.60;;;;;;5034905;28;20141;-60
2021/06/13 08:41:06;;;;;;;5.15;2.53;;;22.50;56.60;;;;;;5035035;28;20030;-60
2021/06/13 08:43:32;;;;;;;5.45;2.08;;;22.50;56.30;;;;;;5034510;28;20025;-60
2021/06/13 08:45:59;;;;;;;3.25;1.98;;;22.30;55.60;;;;;;5034949;28;20018;-60
2021/06/13 08:48:30;;;;;;;3.90;2.25;;;22.50;55.50;;;;;;5034862;28;20029;-60
2021/06/13 08:50:58;;;;;;;6.20;2.15;;;22.50;55.50;;;;;;5034835;28;20044;-60
2021/06/13 08:53:25;;;;;;;4.93;2.00;;;22.50;55.40;;;;;;5034596;28;20097;-60
2021/06/13 08:55:51;;;;;;;5.18;2.28;;;22.60;55.40;;;;;;5034577;28;20033;-60
2021/06/13 08:58:17;;;;;;;4.97;1.90;;;22.60;55.30;;;;;;5033275;28;20491;-60
2021/06/13 09:00:44;;;;;;;6.60;2.13;;;22.60;55.00;;;;;;5034723;28;20033;-60
2021/06/13 09:03:10;;;;;;;3.58;2.10;;;22.70;55.60;;;;;;5034619;28;20083;-60
2021/06/13 09:05:36;;;;;;;4.07;1.95;;;22.70;55.60;;;;;;5033114;28;20480;-60
2021/06/13 09:08:11;;;;;;;5.78;2.30;;;22.70;55.30;;;;;;5032877;28;20064;-60
2021/06/13 09:10:39;;;;;;;3.70;1.88;;;22.80;55.10;;;;;;5034059;28;20033;-59
2021/06/13 09:13:14;;;;;;;3.15;1.98;;;22.80;55.00;;;;;;5034090;28;20207;-59
2021/06/13 09:15:50;;;;;;;4.25;1.98;;;22.80;54.90;;;;;;5034326;28;20028;-60
2021/06/13 09:18:44;;;;;;;3.05;1.65;;;22.90;54.80;;;;;;5034367;28;20136;-59
2021/06/13 09:21:20;;;;;;;3.67;2.20;;;22.90;54.70;;;;;;5034041;28;20025;-59
2021/06/13 09:23:46;;;;;;;5.15;1.95;;;22.90;54.70;;;;;;5033985;28;20029;-59
2021/06/13 09:26:17;;;;;;;2.60;1.80;;;23.00;54.70;;;;;;5033936;28;20037;-59
2021/06/13 09:28:49;;;;;;;5.55;2.05;;;23.00;54.60;;;;;;5034092;28;20037;-59
2021/06/13 09:31:24;;;;;;;3.08;1.70;;;23.00;54.50;;;;;;5034183;28;20036;-59
2021/06/13 09:33:52;;;;;;;2.83;1.77;;;23.10;54.50;;;;;;5034113;28;20109;-60
2021/06/13 09:36:20;;;;;;;3.22;1.73;;;23.10;54.50;;;;;;5033977;28;20017;-60
2021/06/13 09:38:48;;;;;;;3.85;1.83;;;23.20;54.40;;;;;;5033461;28;20120;-60
2021/06/13 09:41:19;;;;;;;3.78;1.75;;;23.20;54.30;;;;;;5033561;28;20119;-60
2021/06/13 09:43:50;;;;;;;3.95;1.90;;;23.20;54.30;;;;;;5033534;28;20057;-60
2021/06/13 09:46:19;;;;;;;5.35;2.00;;;23.20;54.10;;;;;;5033514;28;20104;-59
2021/06/13 09:48:47;;;;;;;2.97;1.85;;;23.30;54.20;;;;;;5033712;28;20025;-59
2021/06/13 09:51:22;;;;;;;4.40;1.83;;;23.30;54.10;;;;;;5033471;28;20048;-59
2021/06/13 09:53:53;;;;;;;4.32;2.20;;;23.50;54.00;;;;;;5033444;28;20032;-59
2021/06/13 09:56:27;;;;;;;4.30;2.22;;;23.40;53.70;;;;;;5033379;28;20104;-59
2021/06/13 09:59:01;;;;;;;2.28;1.73;;;23.40;53.40;;;;;;5033673;28;20028;-58
2021/06/13 10:01:29;;;;;;;4.25;1.98;;;23.30;78.10;;;;;;5033544;28;20049;-59
2021/06/13 10:03:56;;;;;;;3.53;1.65;;;23.50;53.40;;;;;;5033526;28;20025;-59
2021/06/13 10:06:21;;;;;;;3.38;1.70;;;23.40;53.30;;;;;;5033253;28;20480;-59
2021/06/13 10:08:49;;;;;;;3.72;2.05;;;23.40;53.20;;;;;;5033313;28;20040;-58
2021/06/13 10:11:16;;;;;;;3.90;2.00;;;23.50;53.10;;;;;;5033106;28;20060;-58
2021/06/13 10:13:42;;;;;;;5.45;2.08;;;23.50;53.00;;;;;;5032940;28;20492;-58
2021/06/13 10:16:09;;;;;;;2.30;1.70;;;23.50;53.10;;;;;;5033131;28;20070;-58
2021/06/13 10:18:42;;;;;;;6.63;2.15;;;23.60;53.10;;;;;;5033006;28;20392;-58
2021/06/13 10:21:14;;;;;;;4.15;1.98;;;23.60;53.00;;;;;;5033185;28;20029;-58
2021/06/13 10:23:45;;;;;;;3.50;1.77;;;23.60;52.90;;;;;;5032891;28;20519;-57
2021/06/13 10:26:11;;;;;;;4.57;1.90;;;23.60;52.90;;;;;;5032798;28;20049;-58
2021/06/13 10:28:36;;;;;;;3.60;1.92;;;23.60;52.80;;;;;;5032948;28;20044;-58
2021/06/13 10:31:03;;;;;;;3.70;1.65;;;23.70;52.80;;;;;;5033027;28;20060;-58
2021/06/13 10:33:29;;;;;;;3.40;1.88;;;23.70;52.70;;;;;;5031545;28;20032;-60
2021/06/13 10:35:59;;;;;;;3.38;1.77;;;23.70;52.60;;;;;;5031454;28;20018;-58
2021/06/13 10:38:25;;;;;;;;;;;23.70;52.50;;;;;;5033344;28;20151;-58
2021/06/13 10:40:51;;;;;;;3.70;1.73;;;23.80;52.50;;;;;;5032638;28;19991;-58
2021/06/13 10:43:25;;;;;;;5.32;1.95;;;23.70;52.40;;;;;;5032414;28;20040;-57
2021/06/13 10:45:51;;;;;;;3.38;1.70;;;23.70;52.40;;;;;;5032792;28;20018;-58
2021/06/13 10:48:18;;;;;;;3.90;1.70;;;23.70;52.40;;;;;;5031139;28;20400;-58
2021/06/13 10:50:44;;;;;;;4.55;1.80;;;23.80;52.30;;;;;;5032385;28;20123;-58
2021/06/13 10:53:11;;;;;;;3.50;1.88;;;23.80;52.20;;;;;;5032670;28;20033;-58
2021/06/13 10:55:53;;;;;;;3.30;1.88;;;23.80;52.10;;;;;;5032635;28;20397;-58
2021/06/13 10:58:44;;;;;;;3.25;1.77;;;23.80;52.40;;;;;;5032539;28;20495;-58
2021/06/13 11:01:30;;;;;;;3.83;1.63;;;23.80;52.20;;;;;;5032412;28;20111;-60
2021/06/13 11:04:04;;;;;;;4.70;2.00;;;23.80;52.20;;;;;;5031443;28;20091;-58
2021/06/13 11:06:38;;;;;;;4.70;1.63;;;23.80;52.10;;;;;;5031040;28;20022;-58
2021/06/13 11:09:07;;;;;;;4.00;1.90;;;23.90;52.00;;;;;;5032211;28;20037;-59
2021/06/13 11:11:37;;;;;;;4.00;1.75;;;24.00;52.00;;;;;;5032190;28;20025;-58
2021/06/13 11:14:27;;;;;;;3.40;1.63;;;23.90;51.80;;;;;;5032482;28;20059;-58
2021/06/13 11:16:58;;;;;;;3.67;1.52;;;23.90;51.80;;;;;;5031688;28;20036;-58
2021/06/13 11:19:25;;;;;;;3.72;1.65;;;23.90;51.50;;;;;;5031039;28;20021;-58
2021/06/13 11:22:17;;;;;;;5.95;2.20;;;23.90;51.40;;;;;;5032414;28;20034;-58
2021/06/13 11:24:51;;;;;;;3.65;1.67;;;23.90;51.20;;;;;;5030448;28;20033;-58
2021/06/13 11:27:17;;;;;;;4.95;2.10;;;23.90;51.20;;;;;;5031839;28;20062;-59
2021/06/13 11:30:08;;;;;;;4.88;1.85;;;23.90;51.10;;;;;;5032284;28;20030;-58
2021/06/13 11:32:56;;;;;;;2.30;1.83;;;23.90;51.10;;;;;;5032377;28;20022;-58
2021/06/13 11:35:30;;;;;;;6.72;1.85;;;24.00;51.10;;;;;;5032161;28;20435;-58
2021/06/13 11:38:12;;;;;;;2.63;1.80;;;23.90;50.90;;;;;;5032385;28;20032;-58
2021/06/13 11:40:49;;;;;;;2.85;1.92;;;24.10;51.00;;;;;;5032351;28;20083;-58
2021/06/13 11:43:17;;;;;;;3.22;1.85;;;24.00;50.80;;;;;;5032056;28;20025;-58
2021/06/13 11:46:06;;;;;;;2.75;1.88;;;24.00;50.70;;;;;;5032060;28;20116;-59
2021/06/13 11:48:36;;;;;;;5.25;1.92;;;24.00;50.60;;;;;;5032280;28;20053;-58
2021/06/13 11:51:12;;;;;;;4.28;1.50;;;24.10;50.50;;;;;;5032310;28;20387;-59
2021/06/13 11:54:04;;;;;;;4.82;1.60;;;24.00;50.50;;;;;;5032031;28;20028;-60
2021/06/13 11:56:36;;;;;;;2.80;1.65;;;24.00;50.40;;;;;;5031973;28;20022;-59
2021/06/13 11:59:12;;;;;;;3.92;1.90;;;24.10;50.50;;;;;;5032189;28;20080;-58
2021/06/13 12:01:42;;;;;;;3.45;1.65;;;24.10;50.50;;;;;;5031978;28;20028;-59
2021/06/13 12:04:12;;;;;;;2.97;1.75;;;24.10;50.60;;;;;;5034207;28;20441;-59
2021/06/13 12:06:38;;;;;;;5.13;1.65;;;24.10;50.60;;;;;;5035749;28;20022;-58
2021/06/13 12:09:09;;;;;;;4.10;2.03;;;24.20;50.70;;;;;;5035674;28;20064;-58
2021/06/13 12:11:44;;;;;;;3.30;1.67;;;24.10;50.60;;;;;;5035445;28;20536;-59
2021/06/13 12:14:25;;;;;;;3.47;1.95;;;24.10;50.40;;;;;;5034076;28;20484;-58
2021/06/13 12:17:25;;;;;;;4.93;2.30;;;24.10;50.30;;;;;;5035577;28;20018;-58
2021/06/13 12:19:59;;;;;;;4.45;2.10;;;24.10;50.20;;;;;;5035001;28;20037;-59
2021/06/13 12:23:17;;;;;;;3.28;1.58;;;24.10;50.20;;;;;;5034294;28;20112;-59
2021/06/13 12:28:08;;;;;;;2.10;1.50;;;24.10;50.20;;;;;;5035323;28;20048;-59
2021/06/13 12:30:35;;;;;;;2.75;1.70;;;24.30;50.30;;;;;;5035353;28;20103;-58
2021/06/13 12:33:09;;;;;;;3.35;1.92;;;24.20;50.20;;;;;;5033732;28;20067;-57
2021/06/13 12:35:37;;;;;;;4.00;2.00;;;24.20;50.20;;;;;;5034965;28;20022;-58
2021/06/13 12:38:11;;;;;;;4.57;1.83;;;24.20;50.30;;;;;;5034738;28;20056;-62
2021/06/13 12:40:43;;;;;;;3.28;2.10;;;24.20;50.30;;;;;;5017745;28;20056;-59
2021/06/13 12:43:10;;;;;;;2.40;1.70;;;24.20;50.30;;;;;;5035123;28;20025;-61
2021/06/13 12:45:37;;;;;;;3.63;2.00;;;24.30;50.30;;;;;;5035302;28;20441;-62
2021/06/13 12:48:06;;;;;;;2.95;1.70;;;24.30;50.30;;;;;;5034935;28;20025;-60
2021/06/13 12:50:44;;;;;;;2.90;1.92;;;24.40;50.50;;;;;;5035104;28;20075;-60
2021/06/13 12:53:17;;;;;;;7.15;1.75;;;24.40;50.50;;;;;;5033761;28;20029;-60
2021/06/13 12:55:50;;;;;;;4.63;1.60;;;24.60;50.70;;;;;;5034926;28;20028;-61
2021/06/13 12:58:18;;;;;;;3.72;1.60;;;24.60;50.90;;;;;;5033763;28;20029;-61
2021/06/13 13:00:45;;;;;;;4.95;1.48;;;24.70;51.00;;;;;;5035044;28;20377;-62
2021/06/13 13:03:18;;;;;;;4.28;1.80;;;24.80;50.90;;;;;;5034686;28;20025;-61